Aérodrome :
LOGIN :

S'inscrire | Disclaimer

   EN    FR    IT 

 










Légende :    VFR   VFR Marginal   IFR   IFR Intensif   IFR Très Intensif
Visi : 
Plafond : 
>= 8 km
>= 3000ft
5 à 8 km
1000 à 3000 ft
1500m à 5 km
500 à 1000 ft
800 à 1500m
200 à 500 ft
< 800m
< 200 ft
Symboles :   Orages  Brouillard  Fortes neiges  Fortes précipitations  Vent > 20 kt
SIGMETs :   Divers  Orages  Givrage  Turbulence  Onde Orograph.  Cendres Volcan.







- Altitude de l'aérodrome : 23 ft
- Code IATA : XFW


EDHI - Hamburg Finkenwerder

DERNIER METAR :
  • 180620Z 20007KT 7000 FEW008 17/17 Q1012

METARs EXPIRÉS :
  • 180550Z 20009KT 7000 FEW013 17/17 Q1012
  • 180520Z 19006KT 6000 FEW033 17/16 Q1012
  • 180450Z 19007KT 6000 FEW033 17/16 Q1012
  • 180420Z 19006KT 6000 MIFG FEW033 16/16 Q1012
  • 180350Z 21005KT 6000 NSC 16/16 Q1012

TAF TAF EDHI
Valide du 18 à 06h jusqu'au 18 à 15h UTC


180500Z 1806/1815 21008KT 9999 SCT035
TEMPO 1811/1815 3500 RA BKN012
Pas de NOTAMs connus pour ce terrain.



MET'MAP, la Météo Aéronautique d'un coup d'oeil ! - Copyright ORBIFLY Décembre 2007 - Disclaimer

ORBIFLY MET'MAP TEAM :

Programmation & Développement : Alexandra Zaïnal
Conception & Développement : Baudouin d'Aumeries
Co-Programmation & Développement : Marc-Olivier Méhu
Soutien technique & logistique : Manuel Goepfert

Contact : metmap@orbifly.com




SOURCES & CREDITS :

   NOAA